Latest Coastal Weather Observations for Edithburgh

IDS60701

Issued at 3:21 am CDT Monday 27 March 2017 (issued every 10 minutes, with the page automatically refreshed every 10 minutes)

About coastal observations | Map of coastal stations | Coastal observations for SA | Marine services | Other Formats
Station Details ID: 022046 Name: EDITHBURGH Lat: -35.11 Lon: 137.74 Height: 6.0 m
Data from the previous 72 hours. | See also: Recent months at Edithburgh
Date/Time
CDT
Temp
°C
Wind Pressure Rain since
9am
mm
Weather Cloud Vis
km
Sea
Height
m
Swell
Dir  Spd
kts
Gust
kts
hPa Trend Height
m
Period
s
Dir
27/03:00am 21.2 W 19 26 1004.8 - 0.0 - - - - - - -
27/02:45am 21.7 W 20 30 1004.3 - 0.0 - - - - - - -
27/02:30am 22.4 WSW 17 24 1004.2 - 0.0 - - - - - - -
27/02:00am 24.8 W 21 31 1003.8 - 0.0 - - - - - - -
27/01:58am 26.8 WNW 19 31 1003.7 - 0.0 - - - - - - -
27/01:51am 28.6 NNW 13 27 1003.5 - 0.0 - - - - - - -
27/01:30am 27.2 NNE 12 19 1002.2 - 0.0 - - - - - - -
27/01:00am 26.4 NNE 12 19 1002.1 - 0.0 - - - - - - -
27/12:30am 25.8 NNE 11 17 1002.4 - 0.0 - - - - - - -
27/12:00am 25.4 NNE 10 17 1002.8 - 0.0 - - - - - - -
 
Date/Time
CDT
Temp
°C
Wind Pressure Rain since
9am
mm
Weather Cloud Vis
km
Sea
Height
m
Swell
Dir  Spd
kts
Gust
kts
hPa Trend Height
m
Period
s
Dir
26/11:30pm 25.1 NNE 12 17 1003.3 - 0.0 - - - - - - -
26/11:00pm 24.8 NNE 10 15 1003.8 - 0.0 - - - - - - -
26/10:30pm 25.1 NNE 8 12 1004.3 - 0.0 - - - - - - -
26/10:00pm 25.8 NNE 8 13 1004.6 - 0.0 - - - - - - -
26/09:30pm 24.8 NNE 6 9 1004.8 - 0.0 - - - - - - -
26/09:00pm 22.7 NNE 3 5 1005.2 - 0.0 - - - - - - -
26/08:30pm 22.5 NE 4 5 1005.3 - 0.0 - - - - - - -
26/08:00pm 22.6 NE 3 4 1005.3 - 0.0 - - - - - - -
26/07:30pm 23.3 NE 2 2 1005.4 - 0.0 - - - - - - -
26/07:00pm 23.9 ENE 2 3 1005.6 - 0.0 - - - - - - -
26/06:30pm 24.4 NE 5 6 1005.6 - 0.0 - - - - - - -
26/06:00pm 24.8 ENE 6 8 1005.9 - 0.0 - - - - - - -
26/05:30pm 25.6 E 7 9 1006.1 - 0.0 - - - - - - -
26/05:00pm 26.6 E 9 13 1006.5 - 0.0 - - - - - - -
26/04:30pm 25.4 E 9 12 1006.4 - 0.0 - - - - - - -
26/04:00pm 24.1 E 8 10 1007.4 - 0.0 - - - - - - -
26/03:30pm 24.4 SE 6 8 1008.4 - 0.0 - - - - - - -
26/03:00pm 26.2 E 7 8 1008.8 - 0.0 - - - - - - -
26/02:30pm 25.3 E 6 8 1009.5 - 0.0 - - - - - - -
26/02:00pm 24.4 E 7 9 1010.0 - 0.0 - - - - - - -
26/01:30pm 23.5 ENE 6 8 1010.6 - 0.0 - - - - - - -
26/01:00pm 23.2 E 7 9 1010.9 - 0.0 - - - - - - -
26/12:30pm 22.8 E 6 7 1011.3 - 0.0 - - - - - - -
26/12:00pm 23.2 ESE 6 8 1011.8 - 0.0 - - - - - - -
26/11:30am 23.2 SE 9 11 1011.9 - 0.0 - - - - - - -
26/11:00am 22.4 SE 10 13 1012.2 - 0.0 - - - - - - -
26/10:30am 22.5 SE 7 9 1012.6 - 0.0 - - - - - - -
26/10:00am 22.2 SE 7 10 1012.7 - 0.0 - - - - - - -
26/09:30am 21.6 SE 9 11 1012.4 - 0.0 - - - - - - -
26/09:00am 21.8 SSE 6 8 1012.5 - 0.0 - - - - - - -
26/08:30am 21.3 SSE 5 7 1012.2 - 0.0 - - - - - - -
26/08:00am 20.8 SSE 5 6 1011.9 - 0.0 - - - - - - -
26/07:30am 20.3 SSE 3 3 1011.7 - 0.0 - - - - - - -
26/07:00am 20.4 SE 2 2 1011.6 - 0.0 - - - - - - -
26/06:30am 20.3 SSE 4 4 1011.2 - 0.0 - - - - - - -
26/06:00am 20.3 E 3 5 1010.9 - 0.0 - - - - - - -
26/05:30am 20.0 E 4 5 1010.7 - 0.0 - - - - - - -
26/05:00am 20.0 ENE 5 6 1010.8 - 0.0 - - - - - - -
26/04:30am 19.9 ENE 3 4 1011.4 - 0.0 - - - - - - -
26/04:00am 19.7 E 4 5 1011.6 - 0.0 - - - - - - -
26/03:30am 19.8 ESE 3 4 1012.3 - 0.0 - - - - - - -
26/03:00am 19.9 SE 5 6 1012.7 - 0.0 - - - - - - -
26/02:30am 20.0 SE 6 8 1012.9 - 0.0 - - - - - - -
26/02:00am 19.8 SE 5 6 1013.4 - 0.0 - - - - - - -
26/01:30am 19.7 SE 5 6 1013.4 - 0.0 - - - - - - -
26/01:00am 19.9 SSE 6 8 1013.7 - 0.0 - - - - - - -
26/12:30am 19.8 SSE 7 9 1014.1 - 0.0 - - - - - - -
26/12:00am 19.8 SE 8 10 1014.0 - 0.0 - - - - - - -
 
Date/Time
CDT
Temp
°C
Wind Pressure Rain since
9am
mm
Weather Cloud Vis
km
Sea
Height
m
Swell
Dir  Spd
kts
Gust
kts
hPa Trend Height
m
Period
s
Dir
25/11:30pm 20.0 SSE 5 6 1014.3 - 0.0 - - - - - - -
25/11:00pm 19.9 SSE 5 6 1014.5 - 0.0 - - - - - - -
25/10:30pm 20.0 SSE 8 10 1014.4 - 0.0 - - - - - - -
25/10:00pm 20.0 SSE 9 11 1014.4 - 0.0 - - - - - - -
25/09:30pm 20.0 SSE 9 11 1014.3 - 0.0 - - - - - - -
25/09:00pm 20.0 SSE 10 13 1013.9 - 0.0 - - - - - - -
25/08:30pm 20.2 SSE 10 13 1013.5 - 0.0 - - - - - - -
25/08:00pm 20.3 SSE 9 13 1013.4 - 0.0 - - - - - - -
25/07:30pm 20.3 SSE 8 12 1013.4 - 0.0 - - - - - - -
25/07:00pm 20.6 SSE 11 15 1012.7 - 0.0 - - - - - - -
25/06:30pm 20.8 SSE 9 12 1012.8 - 0.0 - - - - - - -
25/06:00pm 21.1 SSE 9 11 1013.3 - 0.0 - - - - - - -
25/05:30pm 20.9 SSE 8 10 1013.0 - 0.0 - - - - - - -
25/05:00pm 20.6 SE 8 11 1012.7 - 0.0 - - - - - - -
25/04:30pm 21.1 SSE 8 9 1013.3 - 0.0 - - - - - - -
25/04:00pm 21.4 SSE 7 9 1013.2 - 0.0 - - - - - - -
25/03:30pm 21.6 SSE 8 10 1013.4 - 0.0 - - - - - - -
25/03:00pm 21.9 SSE 9 11 1013.2 - 0.0 - - - - - - -
25/02:30pm 22.4 S 9 12 1013.6 - 0.0 - - - - - - -
25/02:00pm 22.5 SSE 9 11 1013.7 - 0.0 - - - - - - -
25/01:30pm 22.3 S 11 13 1014.2 - 0.0 - - - - - - -
25/01:00pm 22.7 S 10 12 1014.1 - 0.0 - - - - - - -
25/12:30pm 22.0 S 8 12 1014.5 - 0.0 - - - - - - -
25/12:00pm 21.3 S 9 12 1014.4 - 0.0 - - - - - - -
25/11:30am 21.6 S 9 11 1014.4 - 0.0 - - - - - - -
25/11:00am 21.8 S 9 11 1014.8 - 0.0 - - - - - - -
25/10:30am 21.2 S 7 9 1014.4 - 0.0 - - - - - - -
25/10:00am 21.1 S 7 10 1014.1 - 0.0 - - - - - - -
25/09:30am 20.8 S 6 8 1013.6 - 0.0 - - - - - - -
25/09:00am 20.3 S 6 8 1013.5 - 0.0 - - - - - - -
25/08:30am 20.4 S 7 9 1013.1 - 0.0 - - - - - - -
25/08:00am 20.3 S 6 9 1012.8 - 0.0 - - - - - - -
25/07:30am 20.0 S 6 8 1012.4 - 0.0 - - - - - - -
25/07:00am 19.5 SW 4 6 1012.2 - 0.0 - - - - - - -
25/06:30am 19.7 WSW 4 6 1011.7 - 0.0 - - - - - - -
25/06:00am 20.3 SW 7 10 1011.3 - 0.0 - - - - - - -
25/05:30am 20.0 SW 5 8 1011.1 - 0.0 - - - - - - -
25/05:00am 19.8 WSW 6 8 1011.0 - 0.0 - - - - - - -
25/04:30am 20.0 WSW 7 9 1010.6 - 0.0 - - - - - - -
25/04:00am 20.4 WSW 7 10 1010.7 - 0.0 - - - - - - -
25/03:30am 20.1 WSW 7 9 1010.7 - 0.0 - - - - - - -
25/03:00am 19.4 WNW 6 8 1010.7 - 0.0 - - - - - - -
25/02:30am 18.7 NNW 4 5 1010.6 - 0.0 - - - - - - -
25/02:00am 19.7 N 5 5 1010.9 - 0.0 - - - - - - -
25/01:30am 20.1 W 4 5 1011.6 - 0.0 - - - - - - -
25/01:00am 20.9 WSW 5 7 1012.1 - 0.0 - - - - - - -
25/12:30am 20.8 WSW 4 6 1012.0 - 0.0 - - - - - - -
25/12:00am 20.6 WSW 5 7 1012.2 - 0.0 - - - - - - -
 
Date/Time
CDT
Temp
°C
Wind Pressure Rain since
9am
mm
Weather Cloud Vis
km
Sea
Height
m
Swell
Dir  Spd
kts
Gust
kts
hPa Trend Height
m
Period
s
Dir
24/11:30pm 21.1 WSW 3 5 1012.1 - 0.0 - - - - - - -
24/11:00pm 21.3 CALM 0 0 1012.0 - 0.0 - - - - - - -
24/10:30pm 21.7 SSW 1 2 1012.3 - 0.0 - - - - - - -
24/10:00pm 22.0 SSE 3 3 1012.6 - 0.0 - - - - - - -
24/09:30pm 22.2 SSW 2 5 1012.2 - 0.0 - - - - - - -
24/09:00pm 22.8 SSW 5 9 1012.3 - 0.0 - - - - - - -
24/08:30pm 22.9 SW 7 10 1012.5 - 0.0 - - - - - - -
24/08:00pm 22.2 SSW 4 4 1012.4 - 0.0 - - - - - - -
24/07:30pm 22.6 SSW 2 3 1012.0 - 0.0 - - - - - - -
24/07:00pm 23.1 SW 5 6 1012.0 - 0.0 - - - - - - -
24/06:30pm 23.7 SSW 5 7 1012.1 - 0.0 - - - - - - -
24/06:00pm 24.3 SSW 6 9 1011.8 - 0.0 - - - - - - -
24/05:30pm 24.5 S 7 9 1011.6 - 0.0 - - - - - - -
24/05:00pm 24.8 SSE 6 8 1011.6 - 0.0 - - - - - - -
24/04:30pm 24.4 SE 9 11 1011.7 - 0.0 - - - - - - -
24/04:00pm 25.7 SSE 8 10 1011.8 - 0.0 - - - - - - -
24/03:30pm 26.4 SE 5 7 1011.9 - 0.0 - - - - - - -
24/03:00pm 26.6 E 7 9 1011.8 - 0.0 - - - - - - -
24/02:30pm 26.3 E 6 8 1012.0 - 0.0 - - - - - - -
24/02:00pm 26.6 ENE 7 9 1012.5 - 0.0 - - - - - - -
24/01:30pm 24.3 ENE 8 11 1012.5 - 0.0 - - - - - - -
24/01:00pm 24.9 NE 7 10 1013.1 - 0.0 - - - - - - -
24/12:30pm 24.0 NE 8 11 1013.4 - 0.0 - - - - - - -
24/12:00pm 24.6 NE 8 10 1013.7 - 0.0 - - - - - - -
24/11:30am 24.8 NE 7 9 1014.1 - 0.0 - - - - - - -
24/11:00am 24.2 NE 7 10 1014.1 - 0.0 - - - - - - -
24/10:30am 23.8 NNE 6 10 1014.1 - 0.0 - - - - - - -
24/10:00am 22.9 NE 8 11 1013.8 - 0.0 - - - - - - -
24/09:30am 22.0 NE 5 7 1014.2 - 0.0 - - - - - - -
24/09:00am 22.2 NE 4 7 1014.5 - 0.0 - - - - - - -
24/08:30am 20.6 NNE 2 3 1014.8 - 0.0 - - - - - - -
24/08:00am 20.5 NNE 3 5 1014.1 - 0.0 - - - - - - -
24/07:30am 19.6 NE 6 7 1013.7 - 0.0 - - - - - - -
24/07:00am 18.3 ENE 5 6 1013.8 - 0.0 - - - - - - -
24/06:30am 18.4 E 4 5 1013.8 - 0.0 - - - - - - -
24/06:00am 18.8 ESE 2 2 1014.0 - 0.0 - - - - - - -
24/05:30am 18.1 E 2 3 1013.7 - 0.0 - - - - - - -
24/05:00am 18.4 ENE 2 3 1013.9 - 0.0 - - - - - - -
24/04:30am 20.4 NE 4 6 1013.8 - 0.0 - - - - - - -
24/04:00am 19.8 E 8 11 1013.8 - 0.0 - - - - - - -
24/03:30am 20.0 E 3 4 1014.1 - 0.0 - - - - - - -

Other Formats:

Comma delimited format used in spreadsheet applications
http://www.bom.gov.au/fwo/IDS60701/IDS60701.94809.axf

JavaScript Object Notation format (JSON) in row-major order
http://www.bom.gov.au/fwo/IDS60701/IDS60701.94809.json